sensor_id;sensor_type;location;lat;lon;timestamp;P1;durP1;ratioP1;P2;durP2;ratioP2
6432;SDS011;3249;42.690;23.260;2023-12-22T00:00:26;79.60;;;51.90;;
6432;SDS011;3249;42.690;23.260;2023-12-22T00:02:55;86.63;;;52.00;;
6432;SDS011;3249;42.690;23.260;2023-12-22T00:05:24;92.10;;;54.23;;
6432;SDS011;3249;42.690;23.260;2023-12-22T00:07:53;88.43;;;52.17;;
6432;SDS011;3249;42.690;23.260;2023-12-22T00:10:24;83.83;;;50.30;;
6432;SDS011;3249;42.690;23.260;2023-12-22T00:12:55;82.67;;;49.73;;
6432;SDS011;3249;42.690;23.260;2023-12-22T00:15:24;79.73;;;48.40;;
6432;SDS011;3249;42.690;23.260;2023-12-22T00:17:54;82.00;;;47.07;;
6432;SDS011;3249;42.690;23.260;2023-12-22T00:20:23;63.20;;;38.93;;
6432;SDS011;3249;42.690;23.260;2023-12-22T00:22:52;57.20;;;38.70;;
6432;SDS011;3249;42.690;23.260;2023-12-22T00:25:21;64.63;;;39.87;;
6432;SDS011;3249;42.690;23.260;2023-12-22T00:27:55;63.90;;;37.90;;
6432;SDS011;3249;42.690;23.260;2023-12-22T00:30:24;61.23;;;39.10;;
6432;SDS011;3249;42.690;23.260;2023-12-22T00:32:53;58.20;;;39.80;;
6432;SDS011;3249;42.690;23.260;2023-12-22T00:35:22;64.60;;;42.37;;
6432;SDS011;3249;42.690;23.260;2023-12-22T00:37:58;68.33;;;42.33;;
6432;SDS011;3249;42.690;23.260;2023-12-22T00:40:27;76.80;;;43.10;;
6432;SDS011;3249;42.690;23.260;2023-12-22T00:42:59;56.17;;;38.17;;
6432;SDS011;3249;42.690;23.260;2023-12-22T00:45:28;64.77;;;42.57;;
6432;SDS011;3249;42.690;23.260;2023-12-22T00:47:58;60.07;;;40.37;;
6432;SDS011;3249;42.690;23.260;2023-12-22T00:50:27;48.70;;;31.63;;
6432;SDS011;3249;42.690;23.260;2023-12-22T00:52:56;40.20;;;27.43;;
6432;SDS011;3249;42.690;23.260;2023-12-22T00:55:25;41.80;;;29.23;;
6432;SDS011;3249;42.690;23.260;2023-12-22T00:57:55;34.77;;;25.03;;
6432;SDS011;3249;42.690;23.260;2023-12-22T01:00:26;36.40;;;25.73;;
6432;SDS011;3249;42.690;23.260;2023-12-22T01:02:56;42.60;;;28.83;;
6432;SDS011;3249;42.690;23.260;2023-12-22T01:05:26;38.80;;;25.27;;
6432;SDS011;3249;42.690;23.260;2023-12-22T01:07:55;36.40;;;24.63;;
6432;SDS011;3249;42.690;23.260;2023-12-22T01:10:24;38.57;;;24.90;;
6432;SDS011;3249;42.690;23.260;2023-12-22T01:12:53;35.27;;;24.03;;
6432;SDS011;3249;42.690;23.260;2023-12-22T01:15:26;31.30;;;23.17;;
6432;SDS011;3249;42.690;23.260;2023-12-22T01:17:56;33.03;;;23.83;;
6432;SDS011;3249;42.690;23.260;2023-12-22T01:20:25;35.77;;;24.43;;
6432;SDS011;3249;42.690;23.260;2023-12-22T01:22:54;37.77;;;24.73;;
6432;SDS011;3249;42.690;23.260;2023-12-22T01:25:23;36.33;;;25.87;;
6432;SDS011;3249;42.690;23.260;2023-12-22T01:27:52;34.17;;;24.17;;
6432;SDS011;3249;42.690;23.260;2023-12-22T01:30:23;30.50;;;23.67;;
6432;SDS011;3249;42.690;23.260;2023-12-22T01:32:54;33.80;;;23.43;;
6432;SDS011;3249;42.690;23.260;2023-12-22T01:35:24;33.93;;;23.60;;
6432;SDS011;3249;42.690;23.260;2023-12-22T01:37:54;34.90;;;23.37;;
6432;SDS011;3249;42.690;23.260;2023-12-22T01:40:25;29.30;;;21.87;;
6432;SDS011;3249;42.690;23.260;2023-12-22T01:42:54;31.33;;;21.67;;
6432;SDS011;3249;42.690;23.260;2023-12-22T01:45:26;34.23;;;22.40;;
6432;SDS011;3249;42.690;23.260;2023-12-22T01:47:55;30.90;;;20.87;;
6432;SDS011;3249;42.690;23.260;2023-12-22T01:50:25;31.43;;;20.93;;
6432;SDS011;3249;42.690;23.260;2023-12-22T01:52:55;30.53;;;21.37;;
6432;SDS011;3249;42.690;23.260;2023-12-22T01:55:25;33.10;;;21.23;;
6432;SDS011;3249;42.690;23.260;2023-12-22T01:57:54;31.43;;;22.53;;
6432;SDS011;3249;42.690;23.260;2023-12-22T02:00:27;30.17;;;21.40;;
6432;SDS011;3249;42.690;23.260;2023-12-22T02:02:57;31.17;;;22.53;;
6432;SDS011;3249;42.690;23.260;2023-12-22T02:05:27;32.33;;;22.67;;
6432;SDS011;3249;42.690;23.260;2023-12-22T02:07:56;30.83;;;20.67;;
6432;SDS011;3249;42.690;23.260;2023-12-22T02:10:26;30.80;;;21.93;;
6432;SDS011;3249;42.690;23.260;2023-12-22T02:12:55;28.73;;;20.63;;
6432;SDS011;3249;42.690;23.260;2023-12-22T02:15:27;31.10;;;22.00;;
6432;SDS011;3249;42.690;23.260;2023-12-22T02:17:59;28.17;;;22.37;;
6432;SDS011;3249;42.690;23.260;2023-12-22T02:20:35;29.53;;;22.40;;
6432;SDS011;3249;42.690;23.260;2023-12-22T02:23:07;33.53;;;22.63;;
6432;SDS011;3249;42.690;23.260;2023-12-22T02:25:36;28.10;;;21.40;;
6432;SDS011;3249;42.690;23.260;2023-12-22T02:28:07;33.47;;;23.47;;
6432;SDS011;3249;42.690;23.260;2023-12-22T02:30:41;31.47;;;23.60;;
6432;SDS011;3249;42.690;23.260;2023-12-22T02:33:20;34.80;;;21.70;;
6432;SDS011;3249;42.690;23.260;2023-12-22T02:35:51;32.03;;;20.40;;
6432;SDS011;3249;42.690;23.260;2023-12-22T02:38:25;29.10;;;20.33;;
6432;SDS011;3249;42.690;23.260;2023-12-22T02:40:56;28.53;;;20.03;;
6432;SDS011;3249;42.690;23.260;2023-12-22T02:43:25;29.27;;;21.77;;
6432;SDS011;3249;42.690;23.260;2023-12-22T02:45:55;29.13;;;20.87;;
6432;SDS011;3249;42.690;23.260;2023-12-22T02:48:24;30.47;;;21.60;;
6432;SDS011;3249;42.690;23.260;2023-12-22T02:50:54;33.57;;;23.93;;
6432;SDS011;3249;42.690;23.260;2023-12-22T02:53:26;34.57;;;24.33;;
6432;SDS011;3249;42.690;23.260;2023-12-22T02:55:55;35.73;;;23.87;;
6432;SDS011;3249;42.690;23.260;2023-12-22T02:58:24;37.17;;;23.47;;
6432;SDS011;3249;42.690;23.260;2023-12-22T03:00:54;32.63;;;23.53;;
6432;SDS011;3249;42.690;23.260;2023-12-22T03:03:23;37.00;;;24.67;;
6432;SDS011;3249;42.690;23.260;2023-12-22T03:05:52;31.10;;;20.97;;
6432;SDS011;3249;42.690;23.260;2023-12-22T03:08:22;31.80;;;22.67;;
6432;SDS011;3249;42.690;23.260;2023-12-22T03:10:54;34.77;;;23.47;;
6432;SDS011;3249;42.690;23.260;2023-12-22T03:13:23;33.23;;;24.50;;
6432;SDS011;3249;42.690;23.260;2023-12-22T03:15:53;44.23;;;29.27;;
6432;SDS011;3249;42.690;23.260;2023-12-22T03:18:23;56.80;;;34.03;;
6432;SDS011;3249;42.690;23.260;2023-12-22T03:20:52;42.07;;;27.40;;
6432;SDS011;3249;42.690;23.260;2023-12-22T03:23:21;49.67;;;31.47;;
6432;SDS011;3249;42.690;23.260;2023-12-22T03:25:50;45.43;;;28.70;;
6432;SDS011;3249;42.690;23.260;2023-12-22T03:28:22;42.40;;;29.27;;
6432;SDS011;3249;42.690;23.260;2023-12-22T03:30:52;46.07;;;29.27;;
6432;SDS011;3249;42.690;23.260;2023-12-22T03:33:21;42.67;;;28.73;;
6432;SDS011;3249;42.690;23.260;2023-12-22T03:35:50;45.67;;;30.57;;
6432;SDS011;3249;42.690;23.260;2023-12-22T03:38:19;40.47;;;29.33;;
6432;SDS011;3249;42.690;23.260;2023-12-22T03:40:48;44.20;;;30.13;;
6432;SDS011;3249;42.690;23.260;2023-12-22T03:46:06;39.63;;;27.77;;
6432;SDS011;3249;42.690;23.260;2023-12-22T03:48:36;42.67;;;28.67;;
6432;SDS011;3249;42.690;23.260;2023-12-22T03:51:05;39.03;;;27.50;;
6432;SDS011;3249;42.690;23.260;2023-12-22T03:53:36;40.83;;;26.57;;
6432;SDS011;3249;42.690;23.260;2023-12-22T03:56:06;37.43;;;27.83;;
6432;SDS011;3249;42.690;23.260;2023-12-22T03:58:39;37.60;;;27.30;;
6432;SDS011;3249;42.690;23.260;2023-12-22T04:01:08;37.03;;;26.87;;
6432;SDS011;3249;42.690;23.260;2023-12-22T04:03:38;38.77;;;26.93;;
6432;SDS011;3249;42.690;23.260;2023-12-22T04:06:08;36.73;;;25.97;;
6432;SDS011;3249;42.690;23.260;2023-12-22T04:08:37;32.10;;;23.87;;
6432;SDS011;3249;42.690;23.260;2023-12-22T04:11:06;38.20;;;25.27;;
6432;SDS011;3249;42.690;23.260;2023-12-22T04:13:35;36.07;;;24.60;;
6432;SDS011;3249;42.690;23.260;2023-12-22T04:16:07;33.87;;;25.23;;
6432;SDS011;3249;42.690;23.260;2023-12-22T04:18:37;32.23;;;24.70;;
6432;SDS011;3249;42.690;23.260;2023-12-22T04:21:07;38.13;;;26.07;;
6432;SDS011;3249;42.690;23.260;2023-12-22T04:23:36;35.43;;;25.07;;
6432;SDS011;3249;42.690;23.260;2023-12-22T04:26:05;36.33;;;26.33;;
6432;SDS011;3249;42.690;23.260;2023-12-22T04:28:35;35.63;;;26.43;;
6432;SDS011;3249;42.690;23.260;2023-12-22T04:31:07;39.03;;;27.37;;
6432;SDS011;3249;42.690;23.260;2023-12-22T04:33:36;35.00;;;24.33;;
6432;SDS011;3249;42.690;23.260;2023-12-22T04:36:06;35.70;;;24.70;;
6432;SDS011;3249;42.690;23.260;2023-12-22T04:38:35;35.80;;;25.47;;
6432;SDS011;3249;42.690;23.260;2023-12-22T04:41:06;48.93;;;31.97;;
6432;SDS011;3249;42.690;23.260;2023-12-22T04:43:35;46.00;;;34.23;;
6432;SDS011;3249;42.690;23.260;2023-12-22T04:46:07;40.00;;;28.80;;
6432;SDS011;3249;42.690;23.260;2023-12-22T04:48:36;57.60;;;37.13;;
6432;SDS011;3249;42.690;23.260;2023-12-22T04:51:05;45.10;;;32.00;;
6432;SDS011;3249;42.690;23.260;2023-12-22T04:53:36;45.03;;;33.30;;
6432;SDS011;3249;42.690;23.260;2023-12-22T04:56:05;55.10;;;38.23;;
6432;SDS011;3249;42.690;23.260;2023-12-22T04:58:35;36.67;;;26.73;;
6432;SDS011;3249;42.690;23.260;2023-12-22T05:01:07;42.73;;;30.23;;
6432;SDS011;3249;42.690;23.260;2023-12-22T05:03:36;70.73;;;43.70;;
6432;SDS011;3249;42.690;23.260;2023-12-22T05:06:06;59.43;;;41.53;;
6432;SDS011;3249;42.690;23.260;2023-12-22T05:08:35;56.47;;;38.23;;
6432;SDS011;3249;42.690;23.260;2023-12-22T05:11:04;52.73;;;35.63;;
6432;SDS011;3249;42.690;23.260;2023-12-22T05:13:33;49.70;;;37.10;;
6432;SDS011;3249;42.690;23.260;2023-12-22T05:16:02;62.27;;;39.10;;
6432;SDS011;3249;42.690;23.260;2023-12-22T05:18:35;64.63;;;43.43;;
6432;SDS011;3249;42.690;23.260;2023-12-22T05:21:04;78.50;;;52.50;;
6432;SDS011;3249;42.690;23.260;2023-12-22T05:23:33;79.40;;;51.60;;
6432;SDS011;3249;42.690;23.260;2023-12-22T05:26:02;46.33;;;32.93;;
6432;SDS011;3249;42.690;23.260;2023-12-22T05:28:34;39.53;;;28.80;;
6432;SDS011;3249;42.690;23.260;2023-12-22T05:31:03;22.33;;;16.90;;
6432;SDS011;3249;42.690;23.260;2023-12-22T05:33:35;8.63;;;7.63;;
6432;SDS011;3249;42.690;23.260;2023-12-22T05:36:04;5.07;;;4.77;;
6432;SDS011;3249;42.690;23.260;2023-12-22T05:38:36;5.10;;;4.73;;
6432;SDS011;3249;42.690;23.260;2023-12-22T05:41:06;4.07;;;3.77;;
6432;SDS011;3249;42.690;23.260;2023-12-22T05:43:35;4.40;;;4.07;;
6432;SDS011;3249;42.690;23.260;2023-12-22T05:46:05;5.07;;;4.67;;
6432;SDS011;3249;42.690;23.260;2023-12-22T05:48:37;3.33;;;3.10;;
6432;SDS011;3249;42.690;23.260;2023-12-22T05:51:06;3.77;;;3.57;;
6432;SDS011;3249;42.690;23.260;2023-12-22T05:53:39;4.17;;;3.97;;
6432;SDS011;3249;42.690;23.260;2023-12-22T05:56:16;4.50;;;4.20;;
6432;SDS011;3249;42.690;23.260;2023-12-22T05:58:48;4.10;;;3.80;;
6432;SDS011;3249;42.690;23.260;2023-12-22T06:01:18;4.37;;;4.07;;
6432;SDS011;3249;42.690;23.260;2023-12-22T06:03:51;4.43;;;4.23;;
6432;SDS011;3249;42.690;23.260;2023-12-22T06:06:20;5.00;;;3.93;;
6432;SDS011;3249;42.690;23.260;2023-12-22T06:08:49;4.07;;;3.77;;
6432;SDS011;3249;42.690;23.260;2023-12-22T06:11:18;4.53;;;4.23;;
6432;SDS011;3249;42.690;23.260;2023-12-22T06:13:47;4.53;;;4.13;;
6432;SDS011;3249;42.690;23.260;2023-12-22T06:16:17;3.90;;;3.70;;
6432;SDS011;3249;42.690;23.260;2023-12-22T06:18:47;4.63;;;4.33;;
6432;SDS011;3249;42.690;23.260;2023-12-22T06:21:19;4.67;;;4.30;;
6432;SDS011;3249;42.690;23.260;2023-12-22T06:23:48;4.60;;;4.20;;
6432;SDS011;3249;42.690;23.260;2023-12-22T06:26:18;12.80;;;10.47;;
6432;SDS011;3249;42.690;23.260;2023-12-22T06:28:48;23.97;;;18.53;;
6432;SDS011;3249;42.690;23.260;2023-12-22T06:31:17;23.67;;;16.70;;
6432;SDS011;3249;42.690;23.260;2023-12-22T06:33:48;21.33;;;17.10;;
6432;SDS011;3249;42.690;23.260;2023-12-22T06:36:21;27.83;;;18.47;;
6432;SDS011;3249;42.690;23.260;2023-12-22T06:38:52;27.70;;;20.27;;
6432;SDS011;3249;42.690;23.260;2023-12-22T06:41:23;24.50;;;18.73;;
6432;SDS011;3249;42.690;23.260;2023-12-22T06:43:55;24.87;;;18.63;;
6432;SDS011;3249;42.690;23.260;2023-12-22T06:46:25;23.77;;;19.30;;
6432;SDS011;3249;42.690;23.260;2023-12-22T06:48:56;32.40;;;22.40;;
6432;SDS011;3249;42.690;23.260;2023-12-22T06:51:29;33.00;;;22.87;;
6432;SDS011;3249;42.690;23.260;2023-12-22T06:54:01;25.90;;;20.10;;
6432;SDS011;3249;42.690;23.260;2023-12-22T06:56:32;27.93;;;20.00;;
6432;SDS011;3249;42.690;23.260;2023-12-22T06:59:02;25.40;;;18.10;;
6432;SDS011;3249;42.690;23.260;2023-12-22T07:01:32;27.67;;;18.53;;
6432;SDS011;3249;42.690;23.260;2023-12-22T07:04:04;33.40;;;23.03;;
6432;SDS011;3249;42.690;23.260;2023-12-22T07:06:36;33.07;;;22.77;;
6432;SDS011;3249;42.690;23.260;2023-12-22T07:11:57;26.57;;;18.93;;
6432;SDS011;3249;42.690;23.260;2023-12-22T07:14:27;26.43;;;19.93;;
6432;SDS011;3249;42.690;23.260;2023-12-22T07:16:56;26.10;;;20.00;;
6432;SDS011;3249;42.690;23.260;2023-12-22T07:19:26;29.57;;;21.97;;
6432;SDS011;3249;42.690;23.260;2023-12-22T07:22:00;60.63;;;42.17;;
6432;SDS011;3249;42.690;23.260;2023-12-22T07:24:30;40.67;;;30.60;;
6432;SDS011;3249;42.690;23.260;2023-12-22T07:27:00;51.27;;;35.23;;
6432;SDS011;3249;42.690;23.260;2023-12-22T07:29:31;42.37;;;28.83;;
6432;SDS011;3249;42.690;23.260;2023-12-22T07:32:00;35.27;;;26.10;;
6432;SDS011;3249;42.690;23.260;2023-12-22T07:34:31;30.60;;;22.90;;
6432;SDS011;3249;42.690;23.260;2023-12-22T07:37:02;29.93;;;21.50;;
6432;SDS011;3249;42.690;23.260;2023-12-22T07:39:33;34.23;;;24.17;;
6432;SDS011;3249;42.690;23.260;2023-12-22T07:42:03;50.23;;;33.73;;
6432;SDS011;3249;42.690;23.260;2023-12-22T07:44:32;31.40;;;22.90;;
6432;SDS011;3249;42.690;23.260;2023-12-22T07:47:02;43.67;;;30.07;;
6432;SDS011;3249;42.690;23.260;2023-12-22T07:49:33;43.40;;;31.10;;
6432;SDS011;3249;42.690;23.260;2023-12-22T07:52:05;33.70;;;24.03;;
6432;SDS011;3249;42.690;23.260;2023-12-22T07:54:35;29.40;;;21.37;;
6432;SDS011;3249;42.690;23.260;2023-12-22T07:57:04;29.13;;;21.70;;
6432;SDS011;3249;42.690;23.260;2023-12-22T07:59:34;36.03;;;25.30;;
6432;SDS011;3249;42.690;23.260;2023-12-22T08:02:04;34.57;;;22.37;;
6432;SDS011;3249;42.690;23.260;2023-12-22T08:04:33;25.10;;;17.10;;
6432;SDS011;3249;42.690;23.260;2023-12-22T08:07:05;22.93;;;17.33;;
6432;SDS011;3249;42.690;23.260;2023-12-22T08:09:34;29.53;;;19.10;;
6432;SDS011;3249;42.690;23.260;2023-12-22T08:12:04;25.87;;;19.63;;
6432;SDS011;3249;42.690;23.260;2023-12-22T08:14:34;28.30;;;20.23;;
6432;SDS011;3249;42.690;23.260;2023-12-22T08:17:03;39.20;;;28.33;;
6432;SDS011;3249;42.690;23.260;2023-12-22T08:19:32;60.73;;;41.43;;
6432;SDS011;3249;42.690;23.260;2023-12-22T08:22:07;44.53;;;30.03;;
6432;SDS011;3249;42.690;23.260;2023-12-22T08:24:42;30.80;;;22.93;;
6432;SDS011;3249;42.690;23.260;2023-12-22T08:27:13;34.63;;;23.43;;
6432;SDS011;3249;42.690;23.260;2023-12-22T08:29:42;29.77;;;23.17;;
6432;SDS011;3249;42.690;23.260;2023-12-22T08:32:11;35.60;;;25.83;;
6432;SDS011;3249;42.690;23.260;2023-12-22T08:34:41;34.67;;;24.10;;
6432;SDS011;3249;42.690;23.260;2023-12-22T08:37:14;32.03;;;22.83;;
6432;SDS011;3249;42.690;23.260;2023-12-22T08:39:43;31.77;;;24.17;;
6432;SDS011;3249;42.690;23.260;2023-12-22T08:42:13;38.43;;;27.70;;
6432;SDS011;3249;42.690;23.260;2023-12-22T08:44:43;51.67;;;29.90;;
6432;SDS011;3249;42.690;23.260;2023-12-22T08:47:12;37.23;;;27.70;;
6432;SDS011;3249;42.690;23.260;2023-12-22T08:49:42;42.30;;;30.43;;
6432;SDS011;3249;42.690;23.260;2023-12-22T08:52:14;113.77;;;89.07;;
6432;SDS011;3249;42.690;23.260;2023-12-22T08:54:44;166.60;;;116.40;;
6432;SDS011;3249;42.690;23.260;2023-12-22T08:57:15;164.07;;;112.73;;
6432;SDS011;3249;42.690;23.260;2023-12-22T08:59:45;138.03;;;98.57;;
6432;SDS011;3249;42.690;23.260;2023-12-22T09:02:14;124.37;;;89.53;;
6432;SDS011;3249;42.690;23.260;2023-12-22T09:04:43;123.73;;;91.60;;
6432;SDS011;3249;42.690;23.260;2023-12-22T09:07:16;134.13;;;92.63;;
6432;SDS011;3249;42.690;23.260;2023-12-22T09:09:47;117.67;;;84.23;;
6432;SDS011;3249;42.690;23.260;2023-12-22T09:12:18;117.83;;;86.90;;
6432;SDS011;3249;42.690;23.260;2023-12-22T09:14:49;119.53;;;85.00;;
6432;SDS011;3249;42.690;23.260;2023-12-22T09:17:19;87.27;;;62.77;;
6432;SDS011;3249;42.690;23.260;2023-12-22T09:19:49;41.57;;;32.67;;
6432;SDS011;3249;42.690;23.260;2023-12-22T09:22:21;31.27;;;26.97;;
6432;SDS011;3249;42.690;23.260;2023-12-22T09:24:50;23.30;;;17.73;;
6432;SDS011;3249;42.690;23.260;2023-12-22T09:27:19;20.17;;;14.57;;
6432;SDS011;3249;42.690;23.260;2023-12-22T09:29:48;18.57;;;14.77;;
6432;SDS011;3249;42.690;23.260;2023-12-22T09:32:18;17.27;;;12.93;;
6432;SDS011;3249;42.690;23.260;2023-12-22T09:34:47;16.77;;;14.03;;
6432;SDS011;3249;42.690;23.260;2023-12-22T09:37:17;14.27;;;12.20;;
6432;SDS011;3249;42.690;23.260;2023-12-22T09:39:49;14.13;;;11.47;;
6432;SDS011;3249;42.690;23.260;2023-12-22T09:42:18;11.97;;;10.77;;
6432;SDS011;3249;42.690;23.260;2023-12-22T09:44:50;11.80;;;10.43;;
6432;SDS011;3249;42.690;23.260;2023-12-22T09:47:24;17.27;;;11.63;;
6432;SDS011;3249;42.690;23.260;2023-12-22T09:49:55;35.50;;;20.27;;
6432;SDS011;3249;42.690;23.260;2023-12-22T09:52:25;16.77;;;9.40;;
6432;SDS011;3249;42.690;23.260;2023-12-22T09:55:00;10.07;;;7.40;;
6432;SDS011;3249;42.690;23.260;2023-12-22T09:57:30;8.50;;;6.50;;
6432;SDS011;3249;42.690;23.260;2023-12-22T10:00:00;12.00;;;7.40;;
6432;SDS011;3249;42.690;23.260;2023-12-22T10:02:32;19.83;;;11.03;;
6432;SDS011;3249;42.690;23.260;2023-12-22T10:05:03;9.07;;;8.23;;
6432;SDS011;3249;42.690;23.260;2023-12-22T10:07:33;8.53;;;7.83;;
6432;SDS011;3249;42.690;23.260;2023-12-22T10:10:07;8.70;;;5.63;;
6432;SDS011;3249;42.690;23.260;2023-12-22T10:12:37;6.13;;;5.60;;
6432;SDS011;3249;42.690;23.260;2023-12-22T10:15:08;7.03;;;6.33;;
6432;SDS011;3249;42.690;23.260;2023-12-22T10:17:41;8.90;;;6.43;;
6432;SDS011;3249;42.690;23.260;2023-12-22T10:20:10;8.20;;;7.40;;
6432;SDS011;3249;42.690;23.260;2023-12-22T10:22:40;11.53;;;8.53;;
6432;SDS011;3249;42.690;23.260;2023-12-22T10:25:11;8.80;;;7.50;;
6432;SDS011;3249;42.690;23.260;2023-12-22T10:27:45;8.80;;;7.40;;
6432;SDS011;3249;42.690;23.260;2023-12-22T10:30:14;11.60;;;10.33;;
6432;SDS011;3249;42.690;23.260;2023-12-22T10:32:44;11.20;;;9.37;;
6432;SDS011;3249;42.690;23.260;2023-12-22T10:35:13;9.33;;;8.43;;
6432;SDS011;3249;42.690;23.260;2023-12-22T10:37:42;7.83;;;7.07;;
6432;SDS011;3249;42.690;23.260;2023-12-22T10:40:15;7.73;;;7.00;;
6432;SDS011;3249;42.690;23.260;2023-12-22T10:42:48;13.53;;;8.80;;
6432;SDS011;3249;42.690;23.260;2023-12-22T10:45:36;7.80;;;7.10;;
6432;SDS011;3249;42.690;23.260;2023-12-22T10:48:06;8.50;;;6.13;;
6432;SDS011;3249;42.690;23.260;2023-12-22T10:50:36;6.43;;;5.90;;
6432;SDS011;3249;42.690;23.260;2023-12-22T10:53:09;6.57;;;5.97;;
6432;SDS011;3249;42.690;23.260;2023-12-22T10:55:42;6.40;;;4.57;;
6432;SDS011;3249;42.690;23.260;2023-12-22T10:58:12;3.87;;;3.57;;
6432;SDS011;3249;42.690;23.260;2023-12-22T11:00:43;2.40;;;2.30;;
6432;SDS011;3249;42.690;23.260;2023-12-22T11:03:16;1.80;;;1.70;;
6432;SDS011;3249;42.690;23.260;2023-12-22T11:05:46;1.97;;;1.87;;
6432;SDS011;3249;42.690;23.260;2023-12-22T11:08:18;3.40;;;1.90;;
6432;SDS011;3249;42.690;23.260;2023-12-22T11:10:51;2.07;;;1.97;;
6432;SDS011;3249;42.690;23.260;2023-12-22T11:13:27;2.20;;;2.10;;
6432;SDS011;3249;42.690;23.260;2023-12-22T11:15:56;2.10;;;2.00;;
6432;SDS011;3249;42.690;23.260;2023-12-22T11:18:26;2.53;;;2.43;;
6432;SDS011;3249;42.690;23.260;2023-12-22T11:20:57;2.23;;;2.13;;
6432;SDS011;3249;42.690;23.260;2023-12-22T11:23:26;1.97;;;1.87;;
6432;SDS011;3249;42.690;23.260;2023-12-22T11:26:03;2.57;;;1.73;;
6432;SDS011;3249;42.690;23.260;2023-12-22T11:28:36;2.10;;;2.00;;
6432;SDS011;3249;42.690;23.260;2023-12-22T11:31:10;2.00;;;1.90;;
6432;SDS011;3249;42.690;23.260;2023-12-22T11:33:43;1.90;;;1.80;;
6432;SDS011;3249;42.690;23.260;2023-12-22T11:36:14;1.87;;;1.77;;
6432;SDS011;3249;42.690;23.260;2023-12-22T11:38:44;2.33;;;2.13;;
6432;SDS011;3249;42.690;23.260;2023-12-22T11:41:19;2.50;;;2.30;;
6432;SDS011;3249;42.690;23.260;2023-12-22T11:43:51;3.47;;;2.80;;
6432;SDS011;3249;42.690;23.260;2023-12-22T11:46:21;3.73;;;2.37;;
6432;SDS011;3249;42.690;23.260;2023-12-22T11:48:52;2.50;;;2.30;;
6432;SDS011;3249;42.690;23.260;2023-12-22T11:51:21;2.10;;;2.00;;
6432;SDS011;3249;42.690;23.260;2023-12-22T11:53:51;1.93;;;1.83;;
6432;SDS011;3249;42.690;23.260;2023-12-22T11:56:25;2.20;;;2.10;;
6432;SDS011;3249;42.690;23.260;2023-12-22T11:58:55;2.40;;;2.30;;
6432;SDS011;3249;42.690;23.260;2023-12-22T12:01:25;2.00;;;1.90;;
6432;SDS011;3249;42.690;23.260;2023-12-22T12:03:58;2.53;;;2.43;;
6432;SDS011;3249;42.690;23.260;2023-12-22T12:06:32;2.40;;;2.30;;
6432;SDS011;3249;42.690;23.260;2023-12-22T12:09:05;1.90;;;1.80;;
6432;SDS011;3249;42.690;23.260;2023-12-22T12:14:43;2.00;;;1.90;;
6432;SDS011;3249;42.690;23.260;2023-12-22T12:17:15;1.70;;;1.70;;
6432;SDS011;3249;42.690;23.260;2023-12-22T12:19:47;1.50;;;1.50;;
6432;SDS011;3249;42.690;23.260;2023-12-22T12:22:16;1.90;;;1.80;;
6432;SDS011;3249;42.690;23.260;2023-12-22T12:24:50;1.90;;;1.80;;
6432;SDS011;3249;42.690;23.260;2023-12-22T12:27:22;2.00;;;1.90;;
6432;SDS011;3249;42.690;23.260;2023-12-22T12:29:52;1.90;;;1.80;;
6432;SDS011;3249;42.690;23.260;2023-12-22T12:32:22;1.80;;;1.70;;
6432;SDS011;3249;42.690;23.260;2023-12-22T12:34:52;1.80;;;1.70;;
6432;SDS011;3249;42.690;23.260;2023-12-22T12:37:22;2.23;;;2.07;;
6432;SDS011;3249;42.690;23.260;2023-12-22T12:39:58;1.83;;;1.80;;
6432;SDS011;3249;42.690;23.260;2023-12-22T12:42:33;2.43;;;2.23;;
6432;SDS011;3249;42.690;23.260;2023-12-22T12:45:05;2.40;;;2.30;;
6432;SDS011;3249;42.690;23.260;2023-12-22T12:47:36;2.37;;;2.27;;
6432;SDS011;3249;42.690;23.260;2023-12-22T12:50:06;4.77;;;2.53;;
6432;SDS011;3249;42.690;23.260;2023-12-22T12:52:38;2.67;;;2.57;;
6432;SDS011;3249;42.690;23.260;2023-12-22T12:55:08;2.73;;;2.53;;
6432;SDS011;3249;42.690;23.260;2023-12-22T12:57:42;2.20;;;2.10;;
6432;SDS011;3249;42.690;23.260;2023-12-22T13:00:12;2.00;;;1.90;;
6432;SDS011;3249;42.690;23.260;2023-12-22T13:02:42;2.53;;;2.43;;
6432;SDS011;3249;42.690;23.260;2023-12-22T13:05:19;2.40;;;2.30;;
6432;SDS011;3249;42.690;23.260;2023-12-22T13:07:50;2.30;;;2.10;;
6432;SDS011;3249;42.690;23.260;2023-12-22T13:10:19;2.97;;;2.50;;
6432;SDS011;3249;42.690;23.260;2023-12-22T13:12:52;3.20;;;2.90;;
6432;SDS011;3249;42.690;23.260;2023-12-22T13:15:22;2.77;;;2.63;;
6432;SDS011;3249;42.690;23.260;2023-12-22T13:17:51;3.23;;;3.03;;
6432;SDS011;3249;42.690;23.260;2023-12-22T13:20:21;3.00;;;2.80;;
6432;SDS011;3249;42.690;23.260;2023-12-22T13:22:51;3.00;;;2.63;;
6432;SDS011;3249;42.690;23.260;2023-12-22T13:25:22;2.87;;;2.67;;
6432;SDS011;3249;42.690;23.260;2023-12-22T13:27:54;3.10;;;2.90;;
6432;SDS011;3249;42.690;23.260;2023-12-22T13:30:33;2.77;;;2.57;;
6432;SDS011;3249;42.690;23.260;2023-12-22T13:33:04;2.97;;;2.70;;
6432;SDS011;3249;42.690;23.260;2023-12-22T13:35:34;3.20;;;2.90;;
6432;SDS011;3249;42.690;23.260;2023-12-22T13:38:05;2.47;;;2.37;;
6432;SDS011;3249;42.690;23.260;2023-12-22T13:40:39;3.47;;;3.17;;
6432;SDS011;3249;42.690;23.260;2023-12-22T13:43:30;6.60;;;5.17;;
6432;SDS011;3249;42.690;23.260;2023-12-22T13:46:01;3.00;;;2.80;;
6432;SDS011;3249;42.690;23.260;2023-12-22T13:48:35;3.17;;;2.97;;
6432;SDS011;3249;42.690;23.260;2023-12-22T13:51:07;3.67;;;3.37;;
6432;SDS011;3249;42.690;23.260;2023-12-22T13:53:47;2.47;;;2.37;;
6432;SDS011;3249;42.690;23.260;2023-12-22T13:56:32;2.93;;;2.73;;
6432;SDS011;3249;42.690;23.260;2023-12-22T13:59:13;3.10;;;2.90;;
6432;SDS011;3249;42.690;23.260;2023-12-22T14:01:46;2.90;;;2.70;;
6432;SDS011;3249;42.690;23.260;2023-12-22T14:04:16;3.23;;;3.03;;
6432;SDS011;3249;42.690;23.260;2023-12-22T14:06:47;4.37;;;3.40;;
6432;SDS011;3249;42.690;23.260;2023-12-22T14:09:16;3.87;;;3.57;;
6432;SDS011;3249;42.690;23.260;2023-12-22T14:11:50;3.63;;;3.43;;
6432;SDS011;3249;42.690;23.260;2023-12-22T14:14:22;3.07;;;2.83;;
6432;SDS011;3249;42.690;23.260;2023-12-22T14:16:54;2.90;;;2.70;;
6432;SDS011;3249;42.690;23.260;2023-12-22T14:19:25;2.70;;;2.50;;
6432;SDS011;3249;42.690;23.260;2023-12-22T14:21:58;2.63;;;2.53;;
6432;SDS011;3249;42.690;23.260;2023-12-22T14:24:29;5.30;;;2.53;;
6432;SDS011;3249;42.690;23.260;2023-12-22T14:26:58;3.00;;;2.53;;
6432;SDS011;3249;42.690;23.260;2023-12-22T14:29:30;2.67;;;2.47;;
6432;SDS011;3249;42.690;23.260;2023-12-22T14:32:01;2.23;;;2.13;;
6432;SDS011;3249;42.690;23.260;2023-12-22T14:34:35;3.60;;;3.30;;
6432;SDS011;3249;42.690;23.260;2023-12-22T14:37:07;2.90;;;2.80;;
6432;SDS011;3249;42.690;23.260;2023-12-22T14:39:39;3.50;;;3.30;;
6432;SDS011;3249;42.690;23.260;2023-12-22T14:42:08;3.17;;;2.97;;
6432;SDS011;3249;42.690;23.260;2023-12-22T14:44:42;3.50;;;3.20;;
6432;SDS011;3249;42.690;23.260;2023-12-22T14:47:17;4.57;;;4.07;;
6432;SDS011;3249;42.690;23.260;2023-12-22T14:49:46;3.80;;;3.30;;
6432;SDS011;3249;42.690;23.260;2023-12-22T14:52:17;6.00;;;3.63;;
6432;SDS011;3249;42.690;23.260;2023-12-22T14:54:48;3.13;;;2.93;;
6432;SDS011;3249;42.690;23.260;2023-12-22T14:57:21;3.20;;;3.00;;
6432;SDS011;3249;42.690;23.260;2023-12-22T14:59:54;3.67;;;3.37;;
6432;SDS011;3249;42.690;23.260;2023-12-22T15:02:27;3.27;;;3.10;;
6432;SDS011;3249;42.690;23.260;2023-12-22T15:04:59;3.53;;;3.23;;
6432;SDS011;3249;42.690;23.260;2023-12-22T15:07:32;5.53;;;3.27;;
6432;SDS011;3249;42.690;23.260;2023-12-22T15:10:02;3.00;;;2.70;;
6432;SDS011;3249;42.690;23.260;2023-12-22T15:12:34;4.23;;;3.30;;
6432;SDS011;3249;42.690;23.260;2023-12-22T15:15:11;3.43;;;3.23;;